Time;durP1;ratioP1;P1;durP2;ratioP2;P2;SDS_P1;SDS_P2;PMS_P1;PMS_P2;Temp;Humidity;BMP_temperature;BMP_pressure;BME280_temperature;BME280_humidity;BME280_pressure;Samples;Min_cycle;Max_cycle;Signal;HPM_P1;HPM_P2
2023/08/16 00:02:13;;;;;;;0.68;0.68;;;;;;;23.86;60.47;99943.69;4290724;33;23262;-93
2023/08/16 00:04:39;;;;;;;0.60;0.60;;;;;;;23.65;60.46;99948.13;4291086;33;20113;-94
2023/08/16 00:07:04;;;;;;;0.22;0.15;;;;;;;23.67;60.47;99943.56;4291192;33;20134;-93
2023/08/16 00:09:29;;;;;;;0.10;0.10;;;;;;;23.62;60.46;99948.41;4278877;33;21411;-93
2023/08/16 00:11:55;;;;;;;0.43;0.30;;;;;;;23.63;60.46;99942.13;4291276;33;20113;-93
2023/08/16 00:14:20;;;;;;;0.15;0.15;;;;;;;23.37;60.46;99946.88;4291064;33;20121;-93
2023/08/16 00:16:46;;;;;;;0.30;0.30;;;;;;;23.35;60.44;99943.53;4279050;33;20159;-93
2023/08/16 00:19:12;;;;;;;0.57;0.57;;;;;;;23.34;60.44;99941.84;4279166;33;20629;-93
2023/08/16 00:21:37;;;;;;;0.62;0.60;;;;;;;23.23;60.44;99942.72;4279402;33;20121;-93
2023/08/16 00:24:04;;;;;;;0.50;0.37;;;;;;;23.38;60.45;99943.25;4279099;33;20405;-94
2023/08/16 00:26:30;;;;;;;0.25;0.15;;;;;;;23.31;60.45;99940.28;4278922;33;20092;-94
2023/08/16 00:28:55;;;;;;;1.90;0.80;;;;;;;23.42;60.46;99942.91;4290272;33;20160;-94
2023/08/16 00:31:22;;;;;;;0.00;0.00;;;;;;;23.18;60.44;99939.56;4291108;33;20117;-93
2023/08/16 00:33:47;;;;;;;0.45;0.22;;;;;;;23.23;60.45;99942.72;4291184;33;20121;-93
2023/08/16 00:36:13;;;;;;;0.00;0.00;;;;;;;23.28;60.45;99938.72;4278942;33;20132;-94
2023/08/16 00:38:42;;;;;;;0.10;0.10;;;;;;;23.38;60.45;99935.28;4278921;33;20105;-93
2023/08/16 00:41:11;;;;;;;0.35;0.35;;;;;;;23.27;60.44;99942.34;4279137;33;20221;-93
2023/08/16 00:43:37;;;;;;;0.43;0.43;;;;;;;23.28;60.44;99928.09;4290690;33;20100;-93
2023/08/16 00:46:03;;;;;;;0.00;0.00;;;;;;;23.27;60.44;99930.88;4291065;33;20122;-94
2023/08/16 00:48:30;;;;;;;0.28;0.28;;;;;;;23.20;60.44;99929.69;4279003;33;20068;-93
2023/08/16 00:50:55;;;;;;;0.17;0.17;;;;;;;23.37;60.45;99931.78;4290735;33;20146;-93
2023/08/16 00:53:21;;;;;;;0.28;0.20;;;;;;;23.54;60.46;99920.62;4290969;33;20113;-94
2023/08/16 00:55:46;;;;;;;0.35;0.35;;;;;;;23.47;60.45;99919.47;4278923;33;20160;-94
2023/08/16 00:58:12;;;;;;;1.83;0.43;;;;;;;23.38;60.45;99914.88;4278856;33;20237;-93
2023/08/16 01:00:37;;;;;;;0.10;0.10;;;;;;;23.32;60.44;99920.72;4290937;33;20139;-93
2023/08/16 01:03:03;;;;;;;23.17;0.82;;;;;;;23.37;60.45;99915.00;4290784;33;20164;-94
2023/08/16 01:05:28;;;;;;;0.00;0.00;;;;;;;23.23;60.44;99919.66;4278796;33;20372;-94
2023/08/16 01:07:53;;;;;;;0.22;0.22;;;;;;;23.16;60.44;99912.31;4290688;33;20123;-93
2023/08/16 01:10:21;;;;;;;0.17;0.17;;;;;;;23.03;60.44;99909.81;4278805;33;20140;-94
2023/08/16 01:12:47;;;;;;;0.28;0.28;;;;;;;23.01;60.42;99913.56;4290844;33;20104;-94
2023/08/16 01:15:25;;;;;;;0.37;0.37;;;;;;;22.86;60.42;99900.56;4290733;33;20108;-94
2023/08/16 01:17:50;;;;;;;0.30;0.30;;;;;;;22.88;60.43;99906.59;4289956;33;20130;-94
2023/08/16 01:20:16;;;;;;;0.75;0.55;;;;;;;22.81;60.42;99913.34;4278674;33;20156;-93
2023/08/16 01:23:04;;;;;;;0.08;0.08;;;;;;;22.89;60.42;99905.62;4278846;33;20172;-94
2023/08/16 01:26:07;;;;;;;3.42;1.45;;;;;;;22.87;60.41;99907.53;4302513;33;20118;-94
2023/08/16 01:28:33;;;;;;;0.20;0.20;;;;;;;22.76;60.41;99912.00;4290482;33;20142;-94
2023/08/16 01:31:02;;;;;;;0.20;0.20;;;;;;;22.67;60.41;99908.25;4290520;33;20121;-93
2023/08/16 01:33:27;;;;;;;1.17;0.47;;;;;;;22.56;60.40;99906.47;4290531;33;20477;-94
2023/08/16 01:35:52;;;;;;;0.43;0.40;;;;;;;22.28;60.39;99906.97;4290365;33;20100;-93
2023/08/16 01:38:18;;;;;;;0.80;0.80;;;;;;;22.34;60.40;99907.31;4278426;33;20150;-93
2023/08/16 01:40:50;;;;;;;0.32;0.32;;;;;;;22.24;60.38;99901.06;4267728;33;20177;-93
2023/08/16 01:43:15;;;;;;;0.10;0.10;;;;;;;22.54;60.40;99907.56;4292273;33;20085;-93
2023/08/16 01:45:41;;;;;;;0.05;0.05;;;;;;;22.40;60.41;99911.28;4280282;33;20126;-93
2023/08/16 01:48:06;;;;;;;0.55;0.28;;;;;;;22.46;60.40;99902.84;4268210;33;20183;-93
2023/08/16 01:50:32;;;;;;;0.75;0.73;;;;;;;22.54;60.40;99916.38;4268177;33;20152;-93
2023/08/16 01:52:57;;;;;;;0.20;0.20;;;;;;;22.47;60.40;99909.84;4280226;33;20178;-93
2023/08/16 01:55:23;;;;;;;0.50;0.50;;;;;;;22.49;60.40;99907.94;4279737;33;20449;-93
2023/08/16 01:57:48;;;;;;;0.30;0.30;;;;;;;22.68;60.41;99909.94;4268190;33;20108;-94
2023/08/16 02:00:15;;;;;;;0.17;0.17;;;;;;;22.59;60.41;99906.22;4280076;33;20132;-93
2023/08/16 02:02:41;;;;;;;0.43;0.43;;;;;;;22.83;60.42;99906.12;4268576;33;20112;-94
2023/08/16 02:05:06;;;;;;;0.40;0.40;;;;;;;22.95;60.42;99899.00;4268023;33;20167;-93
2023/08/16 02:07:32;;;;;;;0.20;0.20;;;;;;;22.98;60.42;99901.37;4267912;33;20175;-94
2023/08/16 02:09:57;;;;;;;0.62;0.62;;;;;;;22.98;60.43;99900.56;4280001;33;20120;-93
2023/08/16 02:12:23;;;;;;;0.05;0.05;;;;;;;22.84;60.42;99899.00;4279925;33;20209;-93
2023/08/16 02:14:48;;;;;;;0.55;0.40;;;;;;;22.89;60.42;99894.16;4268128;33;20156;-93
2023/08/16 02:17:15;;;;;;;0.90;0.50;;;;;;;22.92;60.43;99894.75;4268150;33;20100;-94
2023/08/16 02:19:41;;;;;;;0.32;0.32;;;;;;;22.80;60.42;99893.06;4280054;33;20105;-93
2023/08/16 02:22:06;;;;;;;2.78;0.60;;;;;;;23.02;60.42;99891.34;4268095;33;20108;-94
2023/08/16 02:24:32;;;;;;;0.32;0.32;;;;;;;22.89;60.42;99887.03;4267971;33;20561;-93
2023/08/16 02:26:57;;;;;;;28.05;0.68;;;;;;;22.88;60.42;99888.00;4279876;33;20135;-93
2023/08/16 02:29:23;;;;;;;0.10;0.10;;;;;;;22.87;60.41;99881.00;4267949;33;20192;-94
2023/08/16 02:31:48;;;;;;;1.20;1.05;;;;;;;22.68;60.41;99872.81;4279829;33;20109;-93
2023/08/16 02:34:13;;;;;;;0.05;0.05;;;;;;;22.75;60.41;99881.97;4279755;33;20127;-93
2023/08/16 02:36:39;;;;;;;0.00;0.00;;;;;;;22.62;60.40;99882.09;4267962;33;20096;-94
2023/08/16 02:39:08;;;;;;;0.20;0.20;;;;;;;22.55;60.40;99883.56;4267938;33;20551;-93
2023/08/16 02:41:33;;;;;;;0.50;0.32;;;;;;;22.57;60.39;99886.09;4279741;33;20172;-95
2023/08/16 02:43:59;;;;;;;2.65;1.00;;;;;;;22.67;60.41;99879.06;4267972;33;20173;-94
2023/08/16 02:46:24;;;;;;;0.10;0.10;;;;;;;22.61;60.41;99880.41;4279789;33;20168;-94
2023/08/16 02:48:49;;;;;;;0.22;0.22;;;;;;;22.66;60.41;99880.88;4267919;33;20112;-93
2023/08/16 02:51:15;;;;;;;0.77;0.77;;;;;;;22.63;60.40;99880.28;4267513;33;20168;-94
2023/08/16 02:53:40;;;;;;;0.08;0.08;;;;;;;22.50;60.40;99879.59;4279826;33;20619;-94
2023/08/16 02:56:07;;;;;;;0.57;0.47;;;;;;;22.34;60.40;99879.97;4267709;33;20136;-93
2023/08/16 02:58:32;;;;;;;0.00;0.00;;;;;;;22.33;60.40;99892.38;4279778;33;20120;-94
2023/08/16 03:00:57;;;;;;;1.33;0.75;;;;;;;22.28;60.40;99888.41;4279603;33;20483;-93
2023/08/16 03:03:23;;;;;;;0.30;0.30;;;;;;;22.15;60.38;99892.97;4267877;33;20140;-94
2023/08/16 03:05:49;;;;;;;0.30;0.30;;;;;;;22.16;60.38;99892.84;4279458;33;20096;-93
2023/08/16 03:08:14;;;;;;;1.08;0.98;;;;;;;22.22;60.39;99895.00;4279621;33;20146;-93
2023/08/16 03:10:39;;;;;;;0.13;0.13;;;;;;;22.16;60.38;99900.78;4267872;33;20135;-94
2023/08/16 03:13:05;;;;;;;0.40;0.40;;;;;;;22.18;60.39;99904.16;4267811;33;20464;-94
2023/08/16 03:15:30;;;;;;;2.83;1.27;;;;;;;22.15;60.38;99900.91;4279491;33;20388;-94
2023/08/16 03:17:56;;;;;;;0.10;0.10;;;;;;;22.12;60.38;99903.81;4279768;33;20520;-94
2023/08/16 03:20:21;;;;;;;3.95;0.75;;;;;;;22.28;60.39;99889.25;4279487;33;20436;-93
2023/08/16 03:22:47;;;;;;;0.28;0.28;;;;;;;22.36;60.39;99894.78;4279355;33;20395;-92
2023/08/16 03:25:12;;;;;;;1.02;0.52;;;;;;;22.22;60.39;99900.31;4279388;33;20599;-93
2023/08/16 03:27:38;;;;;;;0.85;0.85;;;;;;;21.99;60.37;99909.16;4279310;33;20112;-94
2023/08/16 03:30:04;;;;;;;0.88;0.35;;;;;;;22.03;60.38;99911.47;4267585;33;20129;-94
2023/08/16 03:32:29;;;;;;;0.10;0.10;;;;;;;21.92;60.37;99906.12;4279599;33;20089;-93
2023/08/16 03:34:55;;;;;;;1.30;0.75;;;;;;;21.87;60.37;99913.59;4279010;33;20131;-93
2023/08/16 03:37:20;;;;;;;0.50;0.40;;;;;;;21.93;60.36;99910.47;4267362;33;20447;-94
2023/08/16 03:39:45;;;;;;;0.73;0.50;;;;;;;21.98;60.37;99905.66;4279257;33;20995;-94
2023/08/16 03:42:11;;;;;;;0.55;0.55;;;;;;;22.10;60.38;99918.97;4291352;33;20497;-94
2023/08/16 03:44:36;;;;;;;0.52;0.32;;;;;;;22.15;60.38;99922.97;4279292;33;20139;-93
2023/08/16 03:47:03;;;;;;;0.10;0.10;;;;;;;22.23;60.39;99930.31;4279419;33;20212;-93
2023/08/16 03:49:29;;;;;;;0.20;0.20;;;;;;;22.21;60.39;99919.81;4279454;33;20128;-92
2023/08/16 03:51:54;;;;;;;1.08;0.40;;;;;;;22.09;60.37;99922.59;4279347;33;20122;-94
2023/08/16 03:54:20;;;;;;;0.65;0.65;;;;;;;22.00;60.37;99919.66;4279377;33;20096;-94
2023/08/16 03:56:45;;;;;;;0.10;0.10;;;;;;;22.21;60.38;99916.34;4291269;33;20152;-94
2023/08/16 03:59:11;;;;;;;0.10;0.10;;;;;;;22.04;60.37;99918.50;4279388;33;20168;-94
2023/08/16 04:01:36;;;;;;;0.40;0.40;;;;;;;22.07;60.38;99913.94;4291212;33;20159;-94
2023/08/16 04:04:01;;;;;;;0.80;0.52;;;;;;;22.13;60.38;99916.94;4278292;33;20136;-93
2023/08/16 04:06:27;;;;;;;11.30;1.12;;;;;;;22.24;60.38;99911.66;4279014;33;20135;-93
2023/08/16 04:08:53;;;;;;;0.62;0.62;;;;;;;22.37;60.39;99909.72;4279304;33;20168;-94
2023/08/16 04:11:18;;;;;;;1.35;0.65;;;;;;;22.40;60.39;99911.28;4279268;33;20126;-94
2023/08/16 04:13:43;;;;;;;0.43;0.37;;;;;;;22.49;60.40;99917.69;4291134;33;20104;-94
2023/08/16 04:16:09;;;;;;;0.88;0.40;;;;;;;22.74;60.41;99920.09;4279099;33;20160;-93
2023/08/16 04:18:34;;;;;;;0.30;0.22;;;;;;;22.55;60.40;99927.81;4279277;33;20152;-93
2023/08/16 04:21:00;;;;;;;1.45;1.25;;;;;;;22.75;60.41;99936.88;4279149;33;20568;-94
2023/08/16 04:23:25;;;;;;;0.93;0.90;;;;;;;22.73;60.41;99931.69;4290820;33;20395;-94
2023/08/16 04:25:51;;;;;;;2.50;0.93;;;;;;;22.66;60.41;99933.94;4291045;33;20451;-94
2023/08/16 04:28:16;;;;;;;1.35;0.37;;;;;;;22.62;60.40;99940.47;4279051;33;20143;-94
2023/08/16 04:30:42;;;;;;;0.10;0.10;;;;;;;22.76;60.41;99927.94;4278895;33;20124;-93
2023/08/16 04:33:07;;;;;;;0.32;0.32;;;;;;;22.88;60.42;99930.47;4279102;33;20111;-92
2023/08/16 04:35:33;;;;;;;0.20;0.20;;;;;;;22.77;60.41;99926.97;4278948;33;20136;-94
2023/08/16 04:37:58;;;;;;;0.35;0.35;;;;;;;22.83;60.42;99930.00;4279031;33;20101;-94
2023/08/16 04:40:23;;;;;;;0.10;0.10;;;;;;;22.95;60.42;99923.72;4279162;33;20517;-93
2023/08/16 04:42:49;;;;;;;0.20;0.20;;;;;;;23.01;60.42;99930.34;4278975;33;20160;-94
2023/08/16 04:45:14;;;;;;;0.10;0.10;;;;;;;23.16;60.43;99936.19;4279010;33;20116;-93
2023/08/16 04:47:40;;;;;;;7.68;0.90;;;;;;;23.07;60.42;99940.47;4279033;33;20152;-93
2023/08/16 04:50:06;;;;;;;1.55;0.62;;;;;;;23.16;60.43;99945.00;4279098;33;20163;-94
2023/08/16 04:52:38;;;;;;;4.90;1.27;;;;;;;23.12;60.43;99935.62;4291047;33;20112;-94
2023/08/16 04:55:05;;;;;;;0.88;0.85;;;;;;;23.28;60.44;99943.19;4290789;33;20109;-94
2023/08/16 04:57:30;;;;;;;0.00;0.00;;;;;;;23.33;60.43;99942.81;4290893;33;20164;-93
2023/08/16 04:59:55;;;;;;;0.60;0.50;;;;;;;23.37;60.45;99941.56;4290405;33;22184;-93
2023/08/16 05:02:21;;;;;;;1.40;1.25;;;;;;;23.20;60.43;99938.50;4279020;33;20105;-93
2023/08/16 05:04:46;;;;;;;0.37;0.37;;;;;;;23.36;60.44;99937.22;4278700;33;20160;-93
2023/08/16 05:07:12;;;;;;;1.55;0.68;;;;;;;23.59;60.46;99925.59;4278669;33;20168;-94
2023/08/16 05:09:37;;;;;;;0.45;0.22;;;;;;;23.68;60.46;99914.22;4290694;33;20118;-93
2023/08/16 05:12:03;;;;;;;0.40;0.40;;;;;;;23.88;60.47;99925.78;4278844;33;20435;-93
2023/08/16 05:14:28;;;;;;;1.80;0.45;;;;;;;23.79;60.46;99931.91;4290214;33;20143;-93
2023/08/16 05:16:54;;;;;;;0.08;0.08;;;;;;;23.73;60.45;99929.75;4278709;33;20169;-93
2023/08/16 05:19:19;;;;;;;0.00;0.00;;;;;;;23.76;60.47;99933.00;4278607;33;20096;-94
2023/08/16 05:21:45;;;;;;;1.05;0.80;;;;;;;23.77;60.47;99933.84;4278785;33;20156;-93
2023/08/16 05:24:11;;;;;;;0.35;0.28;;;;;;;23.82;60.47;99928.97;4302638;33;20117;-93
2023/08/16 05:26:36;;;;;;;0.13;0.13;;;;;;;23.90;60.47;99934.50;4278490;33;20156;-93
2023/08/16 05:29:02;;;;;;;2.12;1.95;;;;;;;23.97;60.46;99934.81;4278475;33;20101;-93
2023/08/16 05:31:27;;;;;;;1.33;1.23;;;;;;;24.09;60.47;99923.13;4278591;33;20119;-95
2023/08/16 05:33:53;;;;;;;5.28;0.98;;;;;;;24.15;60.48;99926.13;4278681;33;20179;-94
2023/08/16 05:36:18;;;;;;;0.52;0.52;;;;;;;24.47;60.50;99923.38;4278342;33;20120;-93
2023/08/16 05:38:43;;;;;;;0.15;0.15;;;;;;;24.45;60.50;99927.16;4290150;33;20118;-93
2023/08/16 05:41:09;;;;;;;0.37;0.37;;;;;;;24.43;60.49;99927.28;4278615;33;20108;-94
2023/08/16 05:43:34;;;;;;;0.00;0.00;;;;;;;24.50;60.49;99930.25;4290340;33;20184;-93
2023/08/16 05:46:00;;;;;;;0.15;0.13;;;;;;;24.58;60.50;99940.22;4290211;33;20172;-94
2023/08/16 05:48:25;;;;;;;0.08;0.08;;;;;;;24.57;60.50;99938.53;4278410;33;20100;-93
2023/08/16 05:50:51;;;;;;;1.02;0.80;;;;;;;24.48;60.49;99945.50;4290269;33;20138;-93
2023/08/16 05:53:16;;;;;;;0.40;0.40;;;;;;;24.60;60.50;99943.59;4290400;33;20388;-93
2023/08/16 05:55:41;;;;;;;0.55;0.55;;;;;;;24.70;60.51;99944.47;4290118;33;20113;-94
2023/08/16 05:58:08;;;;;;;0.15;0.15;;;;;;;24.85;60.52;99939.66;4290328;33;20108;-94
2023/08/16 06:00:33;;;;;;;0.22;0.22;;;;;;;25.04;60.53;99934.38;4278319;33;20410;-93
2023/08/16 06:02:59;;;;;;;1.08;0.80;;;;;;;25.24;60.54;99936.09;4290117;33;20116;-93
2023/08/16 06:05:25;;;;;;;0.03;0.03;;;;;;;25.31;60.54;99942.53;4290007;33;20116;-94
2023/08/16 06:07:50;;;;;;;0.20;0.20;;;;;;;25.50;60.54;99943.56;4290130;33;20116;-93
2023/08/16 06:10:16;;;;;;;0.10;0.10;;;;;;;25.74;60.56;99928.00;4278048;33;20556;-93
2023/08/16 06:12:41;;;;;;;0.50;0.50;;;;;;;25.91;60.57;99935.28;4278223;33;20120;-95
2023/08/16 06:15:11;;;;;;;0.47;0.47;;;;;;;26.22;60.58;99929.75;4277777;33;20164;-93
2023/08/16 06:17:37;;;;;;;0.65;0.65;;;;;;;26.50;60.60;99930.66;4277926;33;20104;-93
2023/08/16 06:20:04;;;;;;;0.70;0.55;;;;;;;26.79;60.61;99938.56;4289943;33;20108;-93
2023/08/16 06:22:29;;;;;;;1.40;0.98;;;;;;;26.93;60.62;99930.03;4289825;33;20104;-93
2023/08/16 06:24:55;;;;;;;0.10;0.10;;;;;;;27.13;60.63;99926.28;4277753;33;20153;-94
2023/08/16 06:27:20;;;;;;;0.20;0.20;;;;;;;27.21;60.64;99923.72;4303204;33;20492;-93
2023/08/16 06:29:46;;;;;;;0.52;0.52;;;;;;;27.45;60.65;99927.63;4291813;33;20118;-93
2023/08/16 06:32:11;;;;;;;0.52;0.43;;;;;;;27.48;60.65;99935.34;4279832;33;20132;-93
2023/08/16 06:34:38;;;;;;;0.57;0.55;;;;;;;27.53;60.65;99933.88;4279750;33;20124;-93
2023/08/16 06:37:04;;;;;;;1.50;0.88;;;;;;;27.59;60.65;99940.44;4279820;33;20069;-94
2023/08/16 06:39:29;;;;;;;4.40;0.65;;;;;;;27.72;60.66;99932.91;4291619;33;20165;-93
2023/08/16 06:41:55;;;;;;;0.55;0.55;;;;;;;27.70;60.66;99924.22;4279777;33;20462;-93
2023/08/16 06:44:20;;;;;;;0.10;0.10;;;;;;;27.88;60.67;99920.66;4291792;33;20142;-93
2023/08/16 06:46:46;;;;;;;2.17;1.02;;;;;;;28.10;60.68;99928.16;4279641;33;20151;-93
2023/08/16 06:49:11;;;;;;;0.37;0.28;;;;;;;28.27;60.68;99913.09;4291495;33;20124;-93
2023/08/16 06:51:36;;;;;;;0.37;0.37;;;;;;;28.46;60.69;99917.37;4279719;33;20171;-93
2023/08/16 06:54:02;;;;;;;1.12;1.08;;;;;;;28.31;60.69;99912.63;4279694;33;20164;-93
2023/08/16 06:56:29;;;;;;;0.30;0.30;;;;;;;28.38;60.70;99916.31;4279475;33;20097;-92
2023/08/16 06:58:55;;;;;;;0.70;0.70;;;;;;;28.47;60.69;99911.03;4279780;33;20238;-93
2023/08/16 07:01:20;;;;;;;0.57;0.57;;;;;;;28.61;60.70;99910.41;4279703;33;20193;-93
2023/08/16 07:03:48;;;;;;;0.62;0.62;;;;;;;28.52;60.70;99919.41;4279504;33;20182;-93
2023/08/16 07:06:13;;;;;;;1.85;1.23;;;;;;;28.45;60.69;99915.72;4279507;33;20157;-93
2023/08/16 07:08:40;;;;;;;1.37;0.88;;;;;;;28.42;60.70;99906.16;4291355;33;20101;-93
2023/08/16 07:11:06;;;;;;;0.65;0.65;;;;;;;28.41;60.70;99912.50;4291524;33;20160;-92
2023/08/16 07:13:50;;;;;;;0.35;0.35;;;;;;;28.40;60.70;99917.03;4279620;33;20131;-92
2023/08/16 07:16:16;;;;;;;0.52;0.40;;;;;;;28.31;60.70;99915.28;4301765;33;20214;-93
2023/08/16 07:18:41;;;;;;;32.13;2.10;;;;;;;28.36;60.70;99920.16;4279511;33;20103;-93
2023/08/16 07:21:07;;;;;;;2.53;1.80;;;;;;;28.39;60.70;99918.03;4279397;33;20176;-93
2023/08/16 07:23:32;;;;;;;0.62;0.62;;;;;;;28.64;60.71;99923.50;4279410;33;20252;-92
2023/08/16 07:25:58;;;;;;;0.10;0.10;;;;;;;28.62;60.71;99923.63;4279356;33;20119;-93
2023/08/16 07:28:24;;;;;;;0.43;0.43;;;;;;;28.65;60.71;99922.50;4279326;33;20143;-93
2023/08/16 07:30:55;;;;;;;26.60;1.00;;;;;;;28.68;60.71;99922.19;4291253;33;20172;-93
2023/08/16 07:33:23;;;;;;;1.98;1.50;;;;;;;28.83;60.72;99927.75;4291046;33;20505;-92
2023/08/16 07:35:49;;;;;;;3.15;1.83;;;;;;;28.89;60.73;99940.53;4279325;33;20101;-93
2023/08/16 07:38:14;;;;;;;1.58;1.35;;;;;;;28.82;60.72;99939.47;4279202;33;20470;-93
2023/08/16 07:40:40;;;;;;;0.82;0.70;;;;;;;28.92;60.72;99941.06;4279320;33;20128;-92
2023/08/16 07:43:05;;;;;;;2.67;1.80;;;;;;;29.00;60.72;99941.06;4279455;33;20108;-93
2023/08/16 07:45:30;;;;;;;0.62;0.62;;;;;;;28.83;60.72;99943.81;4291230;33;20152;-92
2023/08/16 07:47:56;;;;;;;2.95;1.42;;;;;;;28.84;60.71;99940.97;4291317;33;20108;-93
2023/08/16 07:50:21;;;;;;;3.47;0.95;;;;;;;28.73;60.72;99944.78;4279401;33;20176;-93
2023/08/16 07:52:48;;;;;;;5.85;2.80;;;;;;;28.67;60.71;99948.13;4279452;33;20128;-93
2023/08/16 07:55:13;;;;;;;1.20;1.10;;;;;;;28.83;60.72;99947.34;4279253;33;20127;-93
2023/08/16 07:57:38;;;;;;;0.68;0.68;;;;;;;28.81;60.72;99943.97;4279180;33;20126;-93
2023/08/16 08:00:06;;;;;;;0.30;0.30;;;;;;;28.79;60.72;99945.97;4279446;33;20155;-93
2023/08/16 08:02:32;;;;;;;0.35;0.35;;;;;;;29.00;60.73;99937.56;4291149;33;20124;-93
2023/08/16 08:05:01;;;;;;;3.30;0.65;;;;;;;29.10;60.74;99942.75;4291221;33;20426;-93
2023/08/16 08:07:28;;;;;;;0.52;0.52;;;;;;;29.08;60.73;99952.81;4291210;33;20483;-94
2023/08/16 08:09:55;;;;;;;0.20;0.20;;;;;;;29.10;60.74;99958.84;4291100;33;20745;-93
2023/08/16 08:12:21;;;;;;;4.45;1.40;;;;;;;29.29;60.75;99962.09;4291083;33;20121;-92
2023/08/16 08:14:46;;;;;;;1.67;1.27;;;;;;;29.55;60.76;99970.03;4279164;33;20121;-93
2023/08/16 08:17:12;;;;;;;2.78;1.25;;;;;;;29.57;60.77;99978.75;4278774;33;27606;-92
2023/08/16 08:19:37;;;;;;;0.95;0.95;;;;;;;29.73;60.76;99979.78;4279128;33;20117;-93
2023/08/16 08:22:03;;;;;;;1.02;0.90;;;;;;;29.79;60.77;99979.13;4279138;33;20196;-92
2023/08/16 08:24:28;;;;;;;1.20;1.10;;;;;;;29.83;60.78;99983.16;4279201;33;20104;-93
2023/08/16 08:26:55;;;;;;;1.08;1.08;;;;;;;29.79;60.76;99992.53;4278775;33;20460;-93
2023/08/16 08:29:23;;;;;;;0.52;0.52;;;;;;;29.91;60.78;99988.53;4279264;33;20108;-92
2023/08/16 08:31:48;;;;;;;1.12;1.02;;;;;;;30.08;60.79;99979.50;4279422;33;20173;-92
2023/08/16 08:34:16;;;;;;;1.98;1.40;;;;;;;30.06;60.79;99981.53;4278753;33;20100;-92
2023/08/16 08:36:41;;;;;;;1.17;0.50;;;;;;;30.04;60.77;99983.50;4279063;33;20100;-92
2023/08/16 08:39:07;;;;;;;0.93;0.63;;;;;;;30.14;60.79;99984.19;4271969;33;221556;-93
2023/08/16 08:41:32;;;;;;;0.60;0.60;;;;;;;30.20;60.79;99980.81;4278968;33;20169;-93
2023/08/16 08:43:58;;;;;;;0.30;0.30;;;;;;;30.39;60.80;99993.06;4278913;33;20143;-92
2023/08/16 08:46:24;;;;;;;0.17;0.17;;;;;;;30.50;60.80;99990.00;4290934;33;20164;-92
2023/08/16 08:48:49;;;;;;;2.37;1.17;;;;;;;30.51;60.80;99994.34;4290156;33;20136;-93
2023/08/16 08:51:15;;;;;;;0.40;0.40;;;;;;;30.50;60.80;99998.06;4279017;33;20162;-92
2023/08/16 08:53:40;;;;;;;1.20;1.02;;;;;;;30.41;60.80;99988.34;4279015;33;20121;-92
2023/08/16 08:56:09;;;;;;;1.67;0.73;;;;;;;30.53;60.81;99991.53;4279069;33;20116;-92
2023/08/16 08:58:34;;;;;;;1.15;0.50;;;;;;;30.51;60.80;99998.88;4279045;33;20116;-92
2023/08/16 09:01:00;;;;;;;4.05;1.33;;;;;;;30.47;60.81;99997.56;4279098;33;20164;-92
2023/08/16 09:03:25;;;;;;;1.33;0.57;;;;;;;30.55;60.81;99989.50;4278870;33;20403;-92
2023/08/16 09:05:52;;;;;;;2.40;1.55;;;;;;;30.61;60.82;99994.22;4278735;33;20104;-92
2023/08/16 09:08:18;;;;;;;1.15;1.08;;;;;;;30.64;60.81;99983.13;4290668;33;20113;-92
2023/08/16 09:10:43;;;;;;;1.52;1.08;;;;;;;30.72;60.82;99990.31;4290939;33;20514;-92
2023/08/16 09:13:12;;;;;;;1.35;0.88;;;;;;;30.71;60.82;99992.16;4279114;33;20136;-93
2023/08/16 09:15:37;;;;;;;1.00;0.88;;;;;;;30.66;60.81;100004.44;4278799;33;20164;-92
2023/08/16 09:18:13;;;;;;;1.10;0.88;;;;;;;30.67;60.81;100008.81;4290863;33;20153;-92
2023/08/16 09:20:39;;;;;;;1.42;1.33;;;;;;;30.84;60.82;100002.38;4290776;33;20124;-92
2023/08/16 09:23:04;;;;;;;2.70;1.55;;;;;;;30.94;60.83;99999.47;4278525;33;20469;-92
2023/08/16 09:25:30;;;;;;;0.70;0.70;;;;;;;30.94;60.83;100002.16;4278595;33;20128;-92
2023/08/16 09:27:56;;;;;;;1.52;1.17;;;;;;;31.13;60.83;100004.44;4290717;33;20471;-91
2023/08/16 09:30:23;;;;;;;5.53;0.82;;;;;;;31.21;60.84;99998.19;4278751;33;20112;-91
2023/08/16 09:32:48;;;;;;;2.42;1.23;;;;;;;31.40;60.84;99998.59;4278629;33;20093;-92
2023/08/16 09:35:14;;;;;;;1.67;1.58;;;;;;;31.66;60.86;99986.66;4290620;33;20122;-91
2023/08/16 09:37:41;;;;;;;1.08;0.93;;;;;;;31.94;60.88;99990.53;4278406;33;20113;-90
2023/08/16 09:40:10;;;;;;;1.27;1.15;;;;;;;32.06;60.88;99983.66;4290176;33;20104;-90
2023/08/16 09:42:36;;;;;;;0.30;0.30;;;;;;;32.28;60.89;99984.69;4290207;33;20109;-91
2023/08/16 09:45:01;;;;;;;0.80;0.75;;;;;;;32.28;60.90;99983.84;4290450;33;20430;-91
2023/08/16 09:47:30;;;;;;;4.87;2.20;;;;;;;32.29;60.90;99985.50;4278296;33;20109;-91
2023/08/16 09:49:59;;;;;;;0.77;0.68;;;;;;;32.40;60.90;99990.44;4278605;33;20147;-91
2023/08/16 09:52:25;;;;;;;2.55;1.75;;;;;;;32.41;60.89;99984.03;4290237;33;20101;-90
2023/08/16 09:54:55;;;;;;;1.08;0.70;;;;;;;32.39;60.90;99975.28;4277855;33;22319;-91
2023/08/16 09:57:20;;;;;;;;;;;;;;;32.41;60.90;99969.72;4278733;33;20135;-91
2023/08/16 09:59:45;;;;;;;1.03;1.03;;;;;;;32.62;60.92;99978.75;4302293;33;19993;-91
2023/08/16 10:02:11;;;;;;;1.25;1.17;;;;;;;32.68;60.92;99969.09;4279069;33;20101;-92
2023/08/16 10:04:38;;;;;;;0.80;0.75;;;;;;;32.75;60.91;99969.19;4292078;33;20152;-92
2023/08/16 10:07:05;;;;;;;1.23;0.80;;;;;;;32.83;60.92;99974.50;4291940;33;20183;-90
2023/08/16 10:09:32;;;;;;;0.73;0.57;;;;;;;32.95;60.93;99983.78;4291941;33;20168;-91
2023/08/16 10:11:58;;;;;;;2.10;1.35;;;;;;;32.70;60.92;99995.88;4292061;33;20476;-90
2023/08/16 10:14:23;;;;;;;1.15;1.05;;;;;;;32.80;60.92;99982.97;4280091;33;20140;-89
2023/08/16 10:16:49;;;;;;;0.70;0.70;;;;;;;33.01;60.94;99993.00;4291477;33;24749;-91
2023/08/16 10:19:14;;;;;;;2.95;1.80;;;;;;;33.03;60.94;99981.00;4291973;33;20482;-91
2023/08/16 10:21:43;;;;;;;4.10;1.05;;;;;;;33.11;60.94;99983.56;4279314;33;32075;-91
2023/08/16 10:24:09;;;;;;;1.75;1.12;;;;;;;33.26;60.94;99984.38;4291778;33;20537;-91
2023/08/16 10:26:35;;;;;;;0.70;0.70;;;;;;;33.34;60.95;99988.84;4292038;33;20096;-91
2023/08/16 10:29:05;;;;;;;1.15;1.00;;;;;;;33.40;60.95;99987.28;4279912;33;20128;-91
2023/08/16 10:31:33;;;;;;;2.03;0.60;;;;;;;33.55;60.96;99996.97;4291689;33;20085;-92
2023/08/16 10:33:58;;;;;;;0.93;0.88;;;;;;;33.81;60.98;99993.69;4291759;33;20060;-92
2023/08/16 10:36:24;;;;;;;1.00;0.80;;;;;;;34.04;60.98;99990.81;4279992;33;20130;-91
2023/08/16 10:38:53;;;;;;;1.02;1.02;;;;;;;33.78;60.97;99994.09;4291648;33;20131;-92
2023/08/16 10:41:18;;;;;;;;;;;;;;;33.89;60.97;99989.25;4291997;33;20187;-92
2023/08/16 10:43:48;;;;;;;1.13;0.90;;;;;;;33.90;60.98;99983.66;4304091;33;19984;-92
2023/08/16 10:46:27;;;;;;;0.52;0.52;;;;;;;33.66;60.97;99981.31;4291830;33;20121;-91
2023/08/16 10:48:59;;;;;;;1.02;1.00;;;;;;;33.57;60.97;99991.38;4291402;33;20966;-92
2023/08/16 10:51:25;;;;;;;0.80;0.80;;;;;;;33.38;60.95;99992.84;4291790;33;20129;-92
2023/08/16 10:53:50;;;;;;;0.82;0.82;;;;;;;33.40;60.96;99990.81;4279790;33;20368;-91
2023/08/16 10:56:19;;;;;;;0.60;0.60;;;;;;;33.51;60.96;99987.59;4291591;33;20143;-91
2023/08/16 10:58:51;;;;;;;1.02;1.00;;;;;;;33.39;60.95;99988.31;4279770;33;20497;-92
2023/08/16 11:01:17;;;;;;;0.98;0.80;;;;;;;33.39;60.95;99985.59;4291243;33;20128;-92
2023/08/16 11:03:49;;;;;;;1.10;1.02;;;;;;;33.47;60.96;99986.31;4291558;33;20109;-92
2023/08/16 11:06:15;;;;;;;1.10;0.80;;;;;;;33.53;60.96;99979.28;4279823;33;20140;-93
2023/08/16 11:08:44;;;;;;;1.23;1.12;;;;;;;33.79;60.97;99974.16;4279687;33;20465;-92
2023/08/16 11:11:10;;;;;;;1.15;1.05;;;;;;;33.94;60.98;99984.91;4291610;33;20089;-92
2023/08/16 11:13:39;;;;;;;1.20;0.82;;;;;;;34.03;60.99;99972.09;4291096;33;20450;-91
2023/08/16 11:16:04;;;;;;;1.35;1.25;;;;;;;34.02;60.98;99975.84;4291422;33;20143;-92
2023/08/16 11:18:31;;;;;;;4.80;0.80;;;;;;;34.09;60.99;99969.47;4291551;33;20165;-92
2023/08/16 11:20:59;;;;;;;1.20;0.75;;;;;;;34.22;61.00;99966.03;4291571;33;20124;-92
2023/08/16 11:23:45;;;;;;;1.73;1.30;;;;;;;34.28;60.99;99959.00;4291454;33;20089;-92
2023/08/16 11:26:10;;;;;;;0.60;0.60;;;;;;;34.31;61.00;99967.56;4279240;33;20081;-92
2023/08/16 11:28:37;;;;;;;0.62;0.55;;;;;;;34.38;61.01;99973.88;4291680;33;20117;-92
2023/08/16 11:31:04;;;;;;;0.35;0.35;;;;;;;34.30;61.00;99971.25;4291368;33;20228;-92